Time;durP1;ratioP1;P1;durP2;ratioP2;P2;SDS_P1;SDS_P2;PMS_P1;PMS_P2;Temp;Humidity;BMP_temperature;BMP_pressure;BME280_temperature;BME280_humidity;BME280_pressure;Samples;Min_cycle;Max_cycle;Signal;HPM_P1;HPM_P2
2022/10/17 00:00:28;;;;;;;;;;;;;;;15.87;100.00;101359.81;5006347;28;20305;-75
2022/10/17 00:02:55;;;;;;;;;;;;;;;15.87;100.00;101359.81;4992310;28;19932;-75
2022/10/17 00:05:21;;;;;;;;;;;;;;;15.83;100.00;101345.13;4992099;28;19925;-76
2022/10/17 00:08:08;;;;;;;;;;;;;;;15.79;100.00;101349.94;4990596;28;19971;-75
2022/10/17 00:10:34;;;;;;;;;;;;;;;15.76;100.00;101350.78;4992414;28;19991;-75
2022/10/17 00:13:08;;;;;;;;;;;;;;;15.75;100.00;101351.97;4993240;28;19929;-75
2022/10/17 00:15:35;;;;;;;;;;;;;;;15.71;100.00;101356.81;4994801;28;19926;-75
2022/10/17 00:18:02;;;;;;;;;;;;;;;15.64;100.00;101351.31;5009465;28;19929;-75
2022/10/17 00:20:29;;;;;;;;;;;;;;;15.62;100.00;101356.53;5007318;28;19937;-75
2022/10/17 00:22:56;;;;;;;;;;;;;;;15.54;100.00;101353.03;4991320;28;19930;-75
2022/10/17 00:25:22;;;;;;;;;;;;;;;15.49;100.00;101351.47;5009610;28;19940;-74
2022/10/17 00:27:57;;;;;;;;;;;;;;;15.50;100.00;101347.47;5006754;28;19983;-74
2022/10/17 00:30:23;;;;;;;;;;;;;;;15.52;100.00;101353.44;5008746;28;19929;-76
2022/10/17 00:32:50;;;;;;;;;;;;;;;15.53;100.00;101351.44;5008278;28;19929;-76
2022/10/17 00:35:16;;;;;;;;;;;;;;;15.55;100.00;101351.03;5009408;28;19933;-76
2022/10/17 00:37:45;;;;;;;;;;;;;;;15.54;100.00;101358.59;4992366;28;19933;-73
2022/10/17 00:40:12;;;;;;;;;;;;;;;15.51;100.00;101345.50;5008627;28;20341;-74
2022/10/17 00:42:38;;;;;;;;;;;;;;;15.48;100.00;101341.53;5003173;28;19960;-75
2022/10/17 00:45:22;;;;;;;;;;;;;;;15.48;100.00;101342.75;5009718;28;19929;-75
2022/10/17 00:47:54;;;;;;;;;;;;;;;15.46;100.00;101337.59;4998064;28;19930;-75
2022/10/17 00:50:21;;;;;;;;;;;;;;;15.46;100.00;101334.81;5007722;28;20404;-75
2022/10/17 00:52:47;;;;;;;;;;;;;;;15.43;100.00;101338.41;5008068;28;19926;-75
2022/10/17 00:55:20;;;;;;;;;;;;;;;15.41;100.00;101336.03;5007354;28;19929;-74
2022/10/17 00:57:46;;;;;;;;;;;;;;;15.31;100.00;101336.91;5012466;28;19929;-75
2022/10/17 01:00:16;;;;;;;;;;;;;;;15.30;100.00;101340.13;5008166;28;19934;-76
2022/10/17 01:02:43;;;;;;;;;;;;;;;15.24;100.00;101337.00;5004367;28;19980;-75
2022/10/17 01:05:09;;;;;;;;;;;;;;;15.18;100.00;101318.31;5005248;28;19949;-76
2022/10/17 01:07:37;;;;;;;;;;;;;;;15.25;100.00;101338.56;5008789;28;19972;-75
2022/10/17 01:10:04;;;;;;;;;;;;;;;15.25;100.00;101338.56;5006541;28;19929;-75
2022/10/17 01:12:33;;;;;;;;;;;;;;;15.21;100.00;101323.88;5002972;28;19948;-75
2022/10/17 01:14:59;;;;;;;;;;;;;;;15.19;100.00;101329.06;5003482;28;20366;-75
2022/10/17 01:17:46;;;;;;;;;;;;;;;15.20;100.00;101327.06;5008779;28;19952;-75
2022/10/17 01:20:12;;;;;;;;;;;;;;;15.20;100.00;101327.06;4997761;28;19944;-75
2022/10/17 01:23:03;;;;;;;;;;;;;;;15.16;100.00;101332.69;5008717;28;19929;-75
2022/10/17 01:25:30;;;;;;;;;;;;;;;15.14;100.00;101337.88;5008793;28;20397;-75
2022/10/17 01:27:56;;;;;;;;;;;;;;;15.11;100.00;101332.34;5008652;28;19979;-75
2022/10/17 01:30:31;;;;;;;;;;;;;;;15.10;100.00;101331.56;5007981;28;19929;-75
2022/10/17 01:32:57;;;;;;;;;;;;;;;15.09;100.00;101327.16;4997811;28;19926;-75
2022/10/17 01:35:32;;;;;;;;;;;;;;;15.07;100.00;101324.03;5006681;28;19933;-75
2022/10/17 01:38:08;;;;;;;;;;;;;;;15.06;100.00;101321.66;4991368;28;19926;-75
2022/10/17 01:40:43;;;;;;;;;;;;;;;15.04;100.00;101319.28;5007074;28;19929;-75
2022/10/17 01:43:21;;;;;;;;;;;;;;;14.98;100.00;101322.91;4999730;28;19933;-75
2022/10/17 01:46:01;;;;;;;;;;;;;;;14.97;100.00;101322.13;5007358;28;19933;-75
2022/10/17 01:48:34;;;;;;;;;;;;;;;14.97;100.00;101327.69;5004459;28;19926;-76
2022/10/17 01:51:05;;;;;;;;;;;;;;;14.97;100.00;101315.75;5006801;28;19992;-75
2022/10/17 01:53:33;;;;;;;;;;;;;;;14.87;100.00;101322.22;5004062;28;20353;-75
2022/10/17 01:56:01;;;;;;;;;;;;;;;14.85;100.00;101307.91;4996394;28;20026;-75
2022/10/17 01:58:31;;;;;;;;;;;;;;;14.77;100.00;101312.75;4997771;28;19926;-75
2022/10/17 02:01:00;;;;;;;;;;;;;;;14.72;100.00;101312.41;5000595;28;19945;-75
2022/10/17 02:03:33;;;;;;;;;;;;;;;14.73;100.00;101313.97;5001686;28;20110;-75
2022/10/17 02:06:00;;;;;;;;;;;;;;;14.74;100.00;101308.00;5010589;28;19925;-75
2022/10/17 02:08:28;;;;;;;;;;;;;;;14.79;100.00;101309.56;5012114;28;19930;-76
2022/10/17 02:11:00;;;;;;;;;;;;;;;14.77;100.00;101306.38;5011381;28;19933;-75
2022/10/17 02:13:45;;;;;;;;;;;;;;;14.75;100.00;101304.00;5010999;28;19988;-75
2022/10/17 02:16:30;;;;;;;;;;;;;;;14.71;100.00;101300.47;5003977;28;19926;-75
2022/10/17 02:18:59;;;;;;;;;;;;;;;14.71;100.00;101294.09;5012326;28;19935;-75
2022/10/17 02:21:31;;;;;;;;;;;;;;;14.71;100.00;101297.69;5011511;28;20405;-76
2022/10/17 02:24:18;;;;;;;;;;;;;;;14.73;100.00;101300.06;4994299;28;19945;-75
2022/10/17 02:27:10;;;;;;;;;;;;;;;14.67;100.00;101299.72;4971648;28;19929;-75
2022/10/17 02:29:42;;;;;;;;;;;;;;;14.63;100.00;101279.47;4989484;28;20305;-75
2022/10/17 02:32:11;;;;;;;;;;;;;;;14.66;100.00;101298.13;5008525;28;19933;-76
2022/10/17 02:34:59;;;;;;;;;;;;;;;14.61;100.00;101292.19;5011172;28;19933;-75
2022/10/17 02:37:27;;;;;;;;;;;;;;;14.60;100.00;101285.84;5000722;28;19933;-75
2022/10/17 02:39:58;;;;;;;;;;;;;;;14.59;100.00;101289.84;5007034;28;19929;-76
2022/10/17 02:42:26;;;;;;;;;;;;;;;14.56;100.00;101289.84;5008725;28;19925;-75
2022/10/17 02:44:53;;;;;;;;;;;;;;;14.53;100.00;101277.56;5008229;28;19929;-75
2022/10/17 02:47:26;;;;;;;;;;;;;;;14.53;100.00;101285.91;5008693;28;19925;-76
2022/10/17 02:49:54;;;;;;;;;;;;;;;14.54;100.00;101283.91;5007031;28;19933;-75
2022/10/17 02:52:32;;;;;;;;;;;;;;;14.49;100.00;101285.16;5010018;28;19929;-75
2022/10/17 02:55:14;;;;;;;;;;;;;;;14.48;100.00;101286.34;4993278;28;19933;-75
2022/10/17 02:57:45;;;;;;;;;;;;;;;14.50;100.00;101283.94;4993784;28;19929;-75
2022/10/17 03:00:13;;;;;;;;;;;;;;;14.52;100.00;101284.31;5007185;28;19930;-76
2022/10/17 03:02:41;;;;;;;;;;;;;;;14.52;100.00;101287.09;4999935;28;19931;-76
2022/10/17 03:05:07;;;;;;;;;;;;;;;14.52;100.00;101284.31;4998687;28;19932;-75
2022/10/17 03:07:34;;;;;;;;;;;;;;;14.50;100.00;101283.13;5007701;28;19938;-75
2022/10/17 03:10:00;;;;;;;;;;;;;;;14.51;100.00;101285.53;5006531;28;19929;-75
2022/10/17 03:12:27;;;;;;;;;;;;;;;14.54;100.00;101293.06;5003263;28;19942;-76
2022/10/17 03:14:54;;;;;;;;;;;;;;;14.51;100.00;101293.88;4993350;28;19929;-75
2022/10/17 03:17:20;;;;;;;;;;;;;;;14.50;100.00;101294.28;5009781;28;19925;-75
2022/10/17 03:19:46;;;;;;;;;;;;;;;14.48;100.00;101294.69;5007620;28;19930;-75
2022/10/17 03:22:13;;;;;;;;;;;;;;;14.49;100.00;101295.50;5008718;28;19930;-75
2022/10/17 03:24:39;;;;;;;;;;;;;;;14.48;100.00;101289.13;5006888;28;19956;-75
2022/10/17 03:27:06;;;;;;;;;;;;;;;14.49;100.00;101287.13;5009781;28;20301;-76
2022/10/17 03:29:32;;;;;;;;;;;;;;;14.48;100.00;101291.13;5006773;28;19925;-74
2022/10/17 03:31:59;;;;;;;;;;;;;;;14.45;100.00;101292.72;5009747;28;19929;-76
2022/10/17 03:34:26;;;;;;;;;;;;;;;14.45;100.00;101289.94;5005582;28;19957;-76
2022/10/17 03:36:52;;;;;;;;;;;;;;;14.38;100.00;101297.56;5010523;28;20390;-75
2022/10/17 03:39:18;;;;;;;;;;;;;;;14.37;100.00;101295.97;5010287;28;19933;-75
2022/10/17 03:41:45;;;;;;;;;;;;;;;14.34;100.00;101311.50;5009473;28;19929;-75
2022/10/17 03:44:12;;;;;;;;;;;;;;;14.30;100.00;101312.72;5008448;28;19968;-75
2022/10/17 03:46:38;;;;;;;;;;;;;;;14.33;100.00;101309.13;5009760;28;20291;-75
2022/10/17 03:49:05;;;;;;;;;;;;;;;14.34;100.00;101305.94;5008326;28;19925;-75
2022/10/17 03:51:32;;;;;;;;;;;;;;;14.36;100.00;101309.13;5008854;28;19925;-75
2022/10/17 03:53:58;;;;;;;;;;;;;;;14.34;100.00;101316.31;5010096;28;19930;-75
2022/10/17 03:56:44;;;;;;;;;;;;;;;;;;;;;
2022/10/17 03:59:15;;;;;;;;;;;;;;;14.34;100.00;101317.06;4998046;28;19956;-74
2022/10/17 04:04:35;;;;;;;;;;;;;;;14.36;100.00;101306.31;4995208;28;19926;-73
2022/10/17 04:07:10;;;;;;;;;;;;;;;14.37;100.00;101312.66;5008482;28;19934;-74
2022/10/17 04:09:37;;;;;;;;;;;;;;;14.37;100.00;101312.66;5007391;28;19925;-74
2022/10/17 04:12:03;;;;;;;;;;;;;;;14.36;100.00;101309.13;5008269;28;20696;-77
2022/10/17 04:14:29;;;;;;;;;;;;;;;14.35;100.00;101306.75;5001778;28;19937;-74
2022/10/17 04:16:57;;;;;;;;;;;;;;;14.33;100.00;101314.69;4992969;28;19932;-74
2022/10/17 04:19:24;;;;;;;;;;;;;;;14.31;100.00;101328.25;5009833;28;19934;-74
2022/10/17 04:21:51;;;;;;;;;;;;;;;14.25;100.00;101322.31;5006768;28;19929;-75
2022/10/17 04:24:17;;;;;;;;;;;;;;;14.27;100.00;101330.22;5006115;28;20338;-75
2022/10/17 04:26:43;;;;;;;;;;;;;;;14.26;100.00;101331.44;5009204;28;19976;-75
2022/10/17 04:29:10;;;;;;;;;;;;;;;14.27;100.00;101333.00;5009533;28;19937;-74
2022/10/17 04:31:36;;;;;;;;;;;;;;;14.28;100.00;101335.41;4991352;28;19933;-75
2022/10/17 04:34:13;;;;;;;;;;;;;;;14.26;100.00;101321.13;4993520;28;20044;-76
2022/10/17 04:36:39;;;;;;;;;;;;;;;14.26;100.00;101321.13;5005466;28;19929;-75
2022/10/17 04:39:09;;;;;;;;;;;;;;;14.23;100.00;101330.28;5007991;28;19930;-75
2022/10/17 04:41:35;;;;;;;;;;;;;;;14.21;100.00;101334.63;5008256;28;19929;-75
2022/10/17 04:44:02;;;;;;;;;;;;;;;14.20;100.00;101335.81;5009704;28;19929;-75
2022/10/17 04:46:28;;;;;;;;;;;;;;;14.15;100.00;101336.25;5006863;28;19933;-75
2022/10/17 04:48:55;;;;;;;;;;;;;;;14.16;100.00;101333.06;5007090;28;19987;-75
2022/10/17 04:51:21;;;;;;;;;;;;;;;14.18;100.00;101329.88;5003570;28;19925;-76
2022/10/17 04:53:51;;;;;;;;;;;;;;;14.21;100.00;101326.28;5008975;28;20382;-75
2022/10/17 04:56:27;;;;;;;;;;;;;;;14.24;100.00;101331.06;4990331;28;19929;-76
2022/10/17 04:58:53;;;;;;;;;;;;;;;14.24;100.00;101340.19;5006010;28;20297;-75
2022/10/17 05:01:21;;;;;;;;;;;;;;;14.27;100.00;101333.81;5008265;28;19934;-75
2022/10/17 05:03:47;;;;;;;;;;;;;;;14.24;100.00;101333.84;5008671;28;19940;-75
2022/10/17 05:06:15;;;;;;;;;;;;;;;14.20;100.00;101341.38;5000221;28;19936;-74
2022/10/17 05:08:42;;;;;;;;;;;;;;;14.18;100.00;101347.34;5004471;28;19926;-74
2022/10/17 05:11:18;;;;;;;;;;;;;;;14.20;100.00;101338.59;5005963;28;19929;-75
2022/10/17 05:13:44;;;;;;;;;;;;;;;14.20;100.00;101339.41;4996492;28;19953;-75
2022/10/17 05:16:10;;;;;;;;;;;;;;;14.21;100.00;101340.97;4998181;28;19988;-76
2022/10/17 05:18:37;;;;;;;;;;;;;;;14.22;100.00;101344.56;5005318;28;19937;-75
2022/10/17 05:21:03;;;;;;;;;;;;;;;14.22;100.00;101350.13;5000996;28;19929;-75
2022/10/17 05:23:29;;;;;;;;;;;;;;;14.23;100.00;101348.94;4991795;28;19929;-75
2022/10/17 05:25:56;;;;;;;;;;;;;;;14.18;100.00;101352.16;5008216;28;19937;-75
2022/10/17 05:28:22;;;;;;;;;;;;;;;14.18;100.00;101350.13;5004354;28;19929;-75
2022/10/17 05:30:49;;;;;;;;;;;;;;;14.20;100.00;101353.31;5007583;28;19930;-75
2022/10/17 05:33:15;;;;;;;;;;;;;;;14.20;100.00;101358.88;5007171;28;19929;-75
2022/10/17 05:35:41;;;;;;;;;;;;;;;14.24;100.00;101356.13;5008387;28;19925;-75
2022/10/17 05:38:08;;;;;;;;;;;;;;;14.29;100.00;101355.69;4999229;28;19937;-75
2022/10/17 05:40:40;;;;;;;;;;;;;;;14.30;100.00;101351.69;5007149;28;19929;-75
2022/10/17 05:43:08;;;;;;;;;;;;;;;14.33;100.00;101362.81;5008073;28;19975;-75
2022/10/17 05:45:34;;;;;;;;;;;;;;;14.33;100.00;101359.22;5007566;28;20082;-77
2022/10/17 05:48:01;;;;;;;;;;;;;;;14.30;100.00;101368.41;5007734;28;19937;-75
2022/10/17 05:50:27;;;;;;;;;;;;;;;14.29;100.00;101378.75;5005306;28;20000;-75
2022/10/17 05:52:56;;;;;;;;;;;;;;;14.26;100.00;101382.34;5003329;28;19929;-76
2022/10/17 05:55:23;;;;;;;;;;;;;;;14.30;100.00;101385.09;5007072;28;19937;-75
2022/10/17 05:57:51;;;;;;;;;;;;;;;14.33;100.00;101392.63;5007598;28;20394;-76
2022/10/17 06:00:17;;;;;;;;;;;;;;;14.34;100.00;101383.88;5006970;28;20028;-76
2022/10/17 06:02:44;;;;;;;;;;;;;;;14.32;100.00;101391.88;5007343;28;20448;-75
2022/10/17 06:05:17;;;;;;;;;;;;;;;14.31;100.00;101381.91;5002468;28;19989;-75
2022/10/17 06:07:43;;;;;;;;;;;;;;;14.29;100.00;101389.88;5002105;28;20390;-75
2022/10/17 06:10:15;;;;;;;;;;;;;;;14.26;100.00;101395.47;5006983;28;19929;-75
2022/10/17 06:12:48;;;;;;;;;;;;;;;14.26;100.00;101393.47;5008116;28;19999;-75
2022/10/17 06:15:15;;;;;;;;;;;;;;;14.29;100.00;101398.25;4998442;28;19980;-75
2022/10/17 06:17:41;;;;;;;;;;;;;;;14.33;100.00;101393.44;5008688;28;19937;-75
2022/10/17 06:20:07;;;;;;;;;;;;;;;14.30;100.00;101399.81;4990743;28;19933;-75
2022/10/17 06:22:34;;;;;;;;;;;;;;;14.30;100.00;101401.81;5006299;28;19976;-75
2022/10/17 06:25:00;;;;;;;;;;;;;;;14.32;100.00;101403.00;5007832;28;20016;-75
2022/10/17 06:27:27;;;;;;;;;;;;;;;14.35;100.00;101404.94;4998685;28;19926;-76
2022/10/17 06:29:53;;;;;;;;;;;;;;;14.35;100.00;101413.28;5006850;28;19933;-75
2022/10/17 06:32:19;;;;;;;;;;;;;;;14.35;100.00;101424.44;5008647;28;20382;-75
2022/10/17 06:34:46;;;;;;;;;;;;;;;14.33;100.00;101418.50;5005005;28;19936;-75
2022/10/17 06:37:12;;;;;;;;;;;;;;;14.32;100.00;101424.47;5008255;28;19934;-75
2022/10/17 06:39:38;;;;;;;;;;;;;;;14.35;100.00;101423.66;5005611;28;20469;-75
2022/10/17 06:42:05;;;;;;;;;;;;;;;14.40;100.00;101418.47;5008142;28;19934;-75
2022/10/17 06:44:31;;;;;;;;;;;;;;;14.43;100.00;101423.22;5006714;28;19976;-75
2022/10/17 06:46:58;;;;;;;;;;;;;;;14.49;100.00;101418.00;5004613;28;19987;-75
2022/10/17 06:49:24;;;;;;;;;;;;;;;14.48;100.00;101428.34;5006823;28;19925;-76
2022/10/17 06:51:51;;;;;;;;;;;;;;;14.53;100.00;101424.34;5002027;28;19935;-76
2022/10/17 06:54:17;;;;;;;;;;;;;;;14.62;100.00;101419.91;5010411;28;19926;-76
2022/10/17 06:56:43;;;;;;;;;;;;;;;14.70;100.00;101423.44;5007571;28;19929;-76
2022/10/17 06:59:10;;;;;;;;;;;;;;;14.84;100.00;101417.75;5010679;28;19991;-76
2022/10/17 07:01:36;;;;;;;;;;;;;;;15.04;100.00;101422.41;5006711;28;19948;-75
2022/10/17 07:04:03;;;;;;;;;;;;;;;15.20;100.00;101424.66;4993243;28;19929;-75
2022/10/17 07:06:30;;;;;;;;;;;;;;;15.31;100.00;101431.72;5004939;28;19925;-75
2022/10/17 07:08:56;;;;;;;;;;;;;;;15.42;100.00;101440.78;5011108;28;20341;-75
2022/10/17 07:11:22;;;;;;;;;;;;;;;15.60;100.00;101445.41;5006272;28;20394;-75
2022/10/17 07:13:49;;;;;;;;;;;;;;;15.82;100.00;101446.78;5009500;28;19929;-74
2022/10/17 07:16:15;;;;;;;;;;;;;;;15.90;100.00;101451.06;5001752;28;19925;-75
2022/10/17 07:18:42;;;;;;;;;;;;;;;15.95;100.00;101451.41;5008864;28;19984;-74
2022/10/17 07:21:08;;;;;;;;;;;;;;;16.05;100.00;101466.44;5010119;28;19929;-75
2022/10/17 07:23:35;;;;;;;;;;;;;;;16.11;100.00;101461.97;5008857;28;20036;-75
2022/10/17 07:26:05;;;;;;;;;;;;;;;16.17;100.00;101458.34;4997243;28;19940;-75
2022/10/17 07:28:36;;;;;;;;;;;;;;;16.22;100.00;101454.25;5011771;28;19975;-74
2022/10/17 07:31:04;;;;;;;;;;;;;;;16.27;100.00;101454.59;5009324;28;19930;-75
2022/10/17 07:33:30;;;;;;;;;;;;;;;16.35;100.00;101460.88;5008955;28;20320;-75
2022/10/17 07:35:58;;;;;;;;;;;;;;;16.44;100.00;101458.41;4990701;28;19925;-75
2022/10/17 07:38:24;;;;;;;;;;;;;;;16.58;100.00;101453.44;5008620;28;20444;-75
2022/10/17 07:40:58;;;;;;;;;;;;;;;16.72;100.00;101460.81;5008995;28;19940;-75
2022/10/17 07:43:25;;;;;;;;;;;;;;;16.90;100.00;101458.53;5004133;28;19929;-75
2022/10/17 07:45:52;;;;;;;;;;;;;;;17.14;100.00;101451.75;5005631;28;19921;-75
2022/10/17 07:48:19;;;;;;;;;;;;;;;17.41;100.00;101449.69;4990282;28;19926;-76
2022/10/17 07:50:45;;;;;;;;;;;;;;;17.64;100.00;101446.91;5004670;28;19947;-75
2022/10/17 07:53:12;;;;;;;;;;;;;;;17.92;100.00;101454.75;5006517;28;20385;-75
2022/10/17 07:55:39;;;;;;;;;;;;;;;18.18;100.00;101456.66;4989088;28;19933;-74
2022/10/17 07:58:07;;;;;;;;;;;;;;;18.45;100.00;101465.72;5008216;28;19933;-76
2022/10/17 08:00:34;;;;;;;;;;;;;;;18.58;100.00;101463.03;4988621;28;19925;-75
2022/10/17 08:03:00;;;;;;;;;;;;;;;18.67;100.00;101466.84;5008797;28;19930;-75
2022/10/17 08:05:27;;;;;;;;;;;;;;;18.82;100.00;101467.28;5005988;28;20283;-75
2022/10/17 08:07:54;;;;;;;;;;;;;;;18.91;100.00;101465.47;5009463;28;19933;-75
2022/10/17 08:10:20;;;;;;;;;;;;;;;19.01;100.00;101461.63;5003732;28;19925;-75
2022/10/17 08:12:46;;;;;;;;;;;;;;;19.08;100.00;101461.47;5008863;28;20259;-75
2022/10/17 08:15:13;;;;;;;;;;;;;;;19.23;100.00;101454.25;5006339;28;19936;-74
2022/10/17 08:17:39;;;;;;;;;;;;;;;19.38;100.00;101469.56;5008706;28;20405;-74
2022/10/17 08:20:06;;;;;;;;;;;;;;;19.47;100.00;101460.53;5008455;28;19929;-76
2022/10/17 08:22:32;;;;;;;;;;;;;;;19.60;100.00;101473.38;5005864;28;19926;-74
2022/10/17 08:24:58;;;;;;;;;;;;;;;19.70;100.00;101475.13;5006956;28;19929;-74
2022/10/17 08:27:26;;;;;;;;;;;;;;;19.81;100.00;101475.63;5006818;28;19925;-74
2022/10/17 08:29:53;;;;;;;;;;;;;;;19.95;100.00;101486.47;5008402;28;19929;-74
2022/10/17 08:32:25;;;;;;;;;;;;;;;20.00;100.00;101499.97;5008015;28;20336;-74
2022/10/17 08:34:52;;;;;;;;;;;;;;;20.10;100.00;101495.28;5008382;28;19987;-73
2022/10/17 08:37:19;;;;;;;;;;;;;;;20.21;100.00;101498.63;5003682;28;20283;-74
2022/10/17 08:39:45;;;;;;;;;;;;;;;20.31;100.00;101498.31;5006886;28;19930;-73
2022/10/17 08:42:24;;;;;;;;;;;;;;;20.41;100.00;101498.47;5002398;28;20409;-74
2022/10/17 08:44:57;;;;;;;;;;;;;;;20.41;100.00;101513.28;5001376;28;19926;-74
2022/10/17 08:47:34;;;;;;;;;;;;;;;20.48;100.00;101513.09;5007664;28;19981;-74
2022/10/17 08:50:03;;;;;;;;;;;;;;;20.65;100.00;101511.78;5003546;28;20024;-74
2022/10/17 08:52:39;;;;;;;;;;;;;;;20.74;100.00;101508.31;5000246;28;20443;-77
2022/10/17 08:55:29;;;;;;;;;;;;;;;20.80;100.00;101510.13;5006084;28;19933;-77
2022/10/17 08:57:55;;;;;;;;;;;;;;;20.87;100.00;101517.53;4995464;28;20661;-75
2022/10/17 09:00:22;;;;;;;;;;;;;;;20.98;100.00;101507.56;4996780;28;19935;-75
2022/10/17 09:03:07;;;;;;;;;;;;;;;21.02;100.00;101513.09;5002921;28;19968;-75
2022/10/17 09:05:43;;;;;;;;;;;;;;;21.06;100.00;101508.16;5002234;28;19926;-73
2022/10/17 09:08:28;;;;;;;;;;;;;;;21.14;100.00;101515.91;5004975;28;19936;-75
2022/10/17 09:11:13;;;;;;;;;;;;;;;21.23;100.00;101510.38;5005782;28;20337;-74
2022/10/17 09:14:06;;;;;;;;;;;;;;;21.21;100.00;101517.69;5001950;28;19936;-75
2022/10/17 09:16:39;;;;;;;;;;;;;;;21.34;100.00;101522.09;4999773;28;19941;-71
2022/10/17 09:19:16;;;;;;;;;;;;;;;21.42;100.00;101537.50;5001585;28;19964;-72
2022/10/17 09:22:02;;;;;;;;;;;;;;;21.52;100.00;101536.38;4999599;28;19929;-74
2022/10/17 09:24:35;;;;;;;;;;;;;;;21.61;100.00;101546.94;4993662;28;19925;-74
2022/10/17 09:27:02;;;;;;;;;;;;;;;21.71;100.00;101531.72;5002194;28;19941;-73
2022/10/17 09:29:28;;;;;;;;;;;;;;;21.85;100.00;101543.31;5007700;28;19929;-70
2022/10/17 09:32:34;;;;;;;;;;;;;;;21.98;100.00;101540.47;4998423;28;19961;-71
2022/10/17 09:35:01;;;;;;;;;;;;;;;22.19;100.00;101560.22;5000432;28;19937;-72
2022/10/17 09:37:29;;;;;;;;;;;;;;;22.23;100.00;101546.00;5005018;28;19976;-72
2022/10/17 09:39:56;;;;;;;;;;;;;;;22.41;100.00;101554.63;5005427;28;19975;-68
2022/10/17 09:42:24;;;;;;;;;;;;;;;22.28;100.00;101560.28;5004126;28;19940;-69
2022/10/17 09:44:54;;;;;;;;;;;;;;;22.30;100.00;101565.47;5004430;28;19933;-69
2022/10/17 09:47:21;;;;;;;;;;;;;;;22.35;100.00;101567.72;5001474;28;19929;-69
2022/10/17 09:49:47;;;;;;;;;;;;;;;22.35;100.00;101567.72;4999980;28;19941;-68
2022/10/17 09:52:16;;;;;;;;;;;;;;;22.27;100.00;101574.84;5004308;28;19937;-72
2022/10/17 09:54:42;;;;;;;;;;;;;;;22.23;100.00;101591.09;5006247;28;19934;-72
2022/10/17 09:57:10;;;;;;;;;;;;;;;22.17;100.00;101590.91;5004610;28;19991;-71
2022/10/17 09:59:38;;;;;;;;;;;;;;;22.18;100.00;101588.88;5017745;28;19936;-73
2022/10/17 10:02:07;;;;;;;;;;;;;;;22.21;100.00;101585.91;4998542;28;19933;-73
2022/10/17 10:04:34;;;;;;;;;;;;;;;22.26;100.00;101595.81;4993142;28;19932;-73
2022/10/17 10:07:21;;;;;;;;;;;;;;;22.27;100.00;101600.22;4985735;28;20021;-73
2022/10/17 10:09:55;;;;;;;;;;;;;;;22.27;100.00;101595.38;5006015;28;19925;-72
2022/10/17 10:12:21;;;;;;;;;;;;;;;22.06;100.00;101610.22;4989366;28;19984;-72
2022/10/17 10:14:48;;;;;;;;;;;;;;;22.11;100.00;101617.31;5002079;28;19934;-72
2022/10/17 10:17:28;;;;;;;;;;;;;;;22.17;100.00;101616.25;4982673;28;19929;-73
2022/10/17 10:19:55;;;;;;;;;;;;;;;22.06;100.00;101609.41;4987347;28;19960;-73
2022/10/17 10:22:24;;;;;;;;;;;;;;;22.03;100.00;101625.22;4967098;28;19985;-73
2022/10/17 10:25:07;;;;;;;;;;;;;;;21.98;100.00;101633.47;4984472;28;19938;-73
2022/10/17 10:27:34;;;;;;;;;;;;;;;22.03;100.00;101632.88;4989404;28;19983;-74
2022/10/17 10:30:01;;;;;;;;;;;;;;;21.98;100.00;101644.72;4986176;28;20707;-73
2022/10/17 10:32:32;;;;;;;;;;;;;;;21.95;100.00;101645.63;4989355;28;19940;-73
2022/10/17 10:35:18;;;;;;;;;;;;;;;21.90;100.00;101644.16;4985370;28;20011;-73
2022/10/17 10:37:46;;;;;;;;;;;;;;;21.68;100.00;101637.63;4988133;28;19929;-73
2022/10/17 10:40:16;;;;;;;;;;;;;;;21.83;100.00;101647.22;4983754;28;20000;-73
2022/10/17 10:42:46;;;;;;;;;;;;;;;21.86;100.00;101631.44;4985850;28;19933;-74
2022/10/17 10:45:16;;;;;;;;;;;;;;;21.68;100.00;101639.66;4983615;28;19934;-73
2022/10/17 10:48:15;;;;;;;;;;;;;;;21.94;100.00;101649.69;4986309;28;20020;-73
2022/10/17 10:50:46;;;;;;;;;;;;;;;21.87;100.00;101639.44;4984581;28;19930;-72
2022/10/17 10:53:24;;;;;;;;;;;;;;;21.92;100.00;101638.09;4987718;28;19940;-74
2022/10/17 10:55:54;;;;;;;;;;;;;;;21.99;100.00;101644.28;4987070;28;19929;-72
2022/10/17 10:58:26;;;;;;;;;;;;;;;22.12;100.00;101655.53;4979718;28;20708;-72
2022/10/17 11:00:54;;;;;;;;;;;;;;;22.21;100.00;101666.91;4989394;28;19937;-72
2022/10/17 11:03:25;;;;;;;;;;;;;;;22.41;100.00;101673.06;4986926;28;20003;-73
2022/10/17 11:05:57;;;;;;;;;;;;;;;22.49;100.00;101671.59;4987304;28;19929;-72
2022/10/17 11:08:37;;;;;;;;;;;;;;;22.47;100.00;101674.81;4985853;28;20028;-72
2022/10/17 11:11:12;;;;;;;;;;;;;;;22.33;100.00;101683.78;4991022;28;19981;-73
2022/10/17 11:13:42;;;;;;;;;;;;;;;22.29;100.00;101690.78;4990463;28;20905;-72
2022/10/17 11:16:11;;;;;;;;;;;;;;;22.30;100.00;101701.59;4987651;28;20696;-74
2022/10/17 11:18:37;;;;;;;;;;;;;;;22.23;100.00;101706.69;4974812;28;20732;-75
2022/10/17 11:21:04;;;;;;;;;;;;;;;22.23;100.00;101695.41;4969469;28;19936;-72
2022/10/17 11:24:06;;;;;;;;;;;;;;;22.05;100.00;101701.66;4985674;28;19929;-73
2022/10/17 11:26:39;;;;;;;;;;;;;;;22.13;100.00;101711.44;4891331;29;19931;-73
2022/10/17 11:29:07;;;;;;;;;;;;;;;22.09;100.00;101693.06;4966662;28;20083;-73
2022/10/17 11:31:36;;;;;;;;;;;;;;;21.93;100.00;101704.47;4985406;28;20017;-74
2022/10/17 11:34:21;;;;;;;;;;;;;;;21.99;100.00;101694.19;4981359;28;19938;-73
2022/10/17 11:36:49;;;;;;;;;;;;;;;22.10;100.00;101689.00;4971674;28;19930;-73
2022/10/17 11:39:22;;;;;;;;;;;;;;;22.03;100.00;101680.78;4984332;28;19937;-73
2022/10/17 11:41:52;;;;;;;;;;;;;;;22.02;100.00;101682.03;4987480;28;19935;-74
2022/10/17 11:44:23;;;;;;;;;;;;;;;22.06;100.00;101668.59;4969346;28;19936;-73
2022/10/17 11:46:53;;;;;;;;;;;;;;;22.12;100.00;101658.34;4983384;28;20684;-74
2022/10/17 11:49:22;;;;;;;;;;;;;;;22.12;100.00;101659.13;4986576;28;19930;-72
2022/10/17 11:51:52;;;;;;;;;;;;;;;22.10;100.00;101667.25;4981218;28;19973;-73
2022/10/17 11:54:40;;;;;;;;;;;;;;;22.08;100.00;101671.78;4983836;28;19937;-73
2022/10/17 11:57:45;;;;;;;;;;;;;;;22.11;100.00;101673.69;4981903;28;19941;-73
2022/10/17 12:00:33;;;;;;;;;;;;;;;22.00;100.00;101679.66;4916834;28;19970;-73
2022/10/17 12:03:03;;;;;;;;;;;;;;;22.03;100.00;101672.31;4906934;29;20101;-73
2022/10/17 12:05:44;;;;;;;;;;;;;;;22.11;100.00;101680.09;4956810;28;20051;-73
2022/10/17 12:08:25;;;;;;;;;;;;;;;22.03;100.00;101692.06;4983371;28;19929;-74
2022/10/17 12:11:01;;;;;;;;;;;;;;;22.14;100.00;101687.66;4989552;28;19933;-74
2022/10/17 12:13:28;;;;;;;;;;;;;;;22.26;100.00;101698.13;4984225;28;19941;-73
2022/10/17 12:15:55;;;;;;;;;;;;;;;22.09;100.00;101698.69;4978134;28;19929;-74
2022/10/17 12:18:26;;;;;;;;;;;;;;;22.16;100.00;101696.44;4984432;28;19979;-73
2022/10/17 12:20:59;;;;;;;;;;;;;;;22.12;100.00;101703.44;4981796;28;20480;-73
2022/10/17 12:23:27;;;;;;;;;;;;;;;22.15;100.00;101696.91;4972046;28;19929;-73
2022/10/17 12:26:00;;;;;;;;;;;;;;;22.11;100.00;101697.00;4984551;28;20388;-74
2022/10/17 12:28:36;;;;;;;;;;;;;;;22.04;100.00;101713.38;4986491;28;20015;-74
2022/10/17 12:31:05;;;;;;;;;;;;;;;21.94;100.00;101700.41;4985640;28;19933;-74
2022/10/17 12:33:48;;;;;;;;;;;;;;;21.90;100.00;101708.97;4968749;28;19977;-74
2022/10/17 12:36:21;;;;;;;;;;;;;;;21.78;100.00;101703.34;4986120;28;19960;-74
2022/10/17 12:38:48;;;;;;;;;;;;;;;21.91;100.00;101706.94;4985937;28;19929;-74
2022/10/17 12:41:16;;;;;;;;;;;;;;;21.59;100.00;101704.31;4980816;28;19936;-74
2022/10/17 12:43:50;;;;;;;;;;;;;;;21.66;100.00;101699.25;4983813;28;19930;-73
2022/10/17 12:46:43;;;;;;;;;;;;;;;21.70;100.00;101699.91;4985918;28;19929;-74